Time;durP1;ratioP1;P1;durP2;ratioP2;P2;SDS_P1;SDS_P2;PMS_P1;PMS_P2;Temp;Humidity;BMP_temperature;BMP_pressure;BME280_temperature;BME280_humidity;BME280_pressure;Samples;Min_cycle;Max_cycle;Signal;HPM_P1;HPM_P2
2023/07/03 00:00:00;;;;;;;16.17;5.63;;;;;;;12.14;100.00;100287.84;5030278;28;20057;-61
2023/07/03 00:02:27;;;;;;;18.77;6.88;;;;;;;12.07;100.00;100286.88;5030204;28;20041;-60
2023/07/03 00:04:53;;;;;;;14.52;6.03;;;;;;;12.03;100.00;100288.25;5030277;28;20049;-61
2023/07/03 00:07:20;;;;;;;14.70;5.70;;;;;;;12.00;100.00;100287.75;5030336;28;20065;-60
2023/07/03 00:09:47;;;;;;;15.48;6.35;;;;;;;11.91;100.00;100285.16;5032316;28;20056;-61
2023/07/03 00:12:13;;;;;;;12.27;6.13;;;;;;;11.84;100.00;100286.06;5034235;28;20049;-61
2023/07/03 00:14:40;;;;;;;12.27;5.72;;;;;;;11.80;100.00;100282.88;5033729;28;20045;-61
2023/07/03 00:17:10;;;;;;;13.90;6.30;;;;;;;11.78;100.00;100276.84;5032360;28;20079;-61
2023/07/03 00:19:37;;;;;;;19.60;6.22;;;;;;;11.75;100.00;100277.19;5033656;28;20046;-60
2023/07/03 00:22:04;;;;;;;16.65;6.78;;;;;;;11.79;100.00;100275.81;5033242;28;20136;-61
2023/07/03 00:24:31;;;;;;;16.73;6.55;;;;;;;11.74;100.00;100275.53;5033376;28;20072;-61
2023/07/03 00:26:58;;;;;;;15.73;6.43;;;;;;;11.71;100.00;100273.19;5033694;28;20099;-61
2023/07/03 00:29:29;;;;;;;11.45;6.13;;;;;;;11.63;100.00;100275.94;5033481;28;20049;-61
2023/07/03 00:31:55;;;;;;;15.27;6.22;;;;;;;11.63;100.00;100270.56;5033282;28;20069;-61
2023/07/03 00:34:23;;;;;;;16.83;6.53;;;;;;;11.61;100.00;100275.25;5033288;28;20041;-61
2023/07/03 00:36:49;;;;;;;14.88;6.70;;;;;;;11.58;100.00;100270.22;5033296;28;20056;-61
2023/07/03 00:39:15;;;;;;;19.23;6.03;;;;;;;11.50;100.00;100271.13;5033092;28;20103;-61
2023/07/03 00:41:42;;;;;;;15.02;6.15;;;;;;;11.50;100.00;100275.66;5032385;28;20103;-61
2023/07/03 00:44:15;;;;;;;13.07;6.03;;;;;;;11.53;100.00;100253.81;5032924;28;20049;-61
2023/07/03 00:46:44;;;;;;;14.98;6.85;;;;;;;11.45;100.00;100258.25;5033314;28;20049;-62
2023/07/03 00:49:11;;;;;;;17.10;5.85;;;;;;;11.48;100.00;100264.25;5033393;28;20123;-60
2023/07/03 00:51:42;;;;;;;16.23;6.78;;;;;;;11.41;100.00;100261.44;5033222;28;20050;-61
2023/07/03 00:54:08;;;;;;;16.17;6.50;;;;;;;11.40;100.00;100259.78;5032965;28;20041;-59
2023/07/03 00:56:35;;;;;;;19.40;7.00;;;;;;;11.35;100.00;100257.63;5032838;28;20107;-60
2023/07/03 00:59:03;;;;;;;26.13;7.10;;;;;;;11.31;100.00;100261.69;5032368;28;20050;-60
2023/07/03 01:01:57;;;;;;;17.58;7.35;;;;;;;11.24;100.00;100258.03;5032714;28;20490;-61
2023/07/03 01:04:31;;;;;;;15.50;7.05;;;;;;;11.18;100.00;100256.88;5038453;28;20059;-62
2023/07/03 01:07:25;;;;;;;19.50;6.38;;;;;;;11.18;100.00;100256.03;5052550;28;20048;-60
2023/07/03 01:09:59;;;;;;;17.40;7.28;;;;;;;11.15;100.00;100251.00;5052019;28;20073;-62
2023/07/03 01:12:30;;;;;;;17.15;7.22;;;;;;;11.18;100.00;100245.31;5052548;28;20144;-61
2023/07/03 01:15:03;;;;;;;15.65;6.57;;;;;;;11.16;100.00;100247.31;5052667;28;20080;-61
2023/07/03 01:17:31;;;;;;;12.95;6.65;;;;;;;11.14;100.00;100249.34;5052259;28;20049;-61
2023/07/03 01:20:01;;;;;;;16.42;6.70;;;;;;;11.06;100.00;100252.88;5051986;28;20140;-61
2023/07/03 01:22:36;;;;;;;16.10;6.75;;;;;;;11.08;100.00;100250.03;5052345;28;20496;-62
2023/07/03 01:25:10;;;;;;;19.88;6.82;;;;;;;11.08;100.00;100250.88;5052034;28;20075;-61
2023/07/03 01:27:41;;;;;;;27.25;7.60;;;;;;;11.08;100.00;100247.38;5052367;28;20094;-61
2023/07/03 01:30:12;;;;;;;21.83;7.38;;;;;;;11.10;100.00;100248.00;5052174;28;20094;-61
2023/07/03 01:32:39;;;;;;;15.03;6.23;;;;;;;11.08;100.00;100237.47;5052242;28;20037;-60
2023/07/03 01:35:11;;;;;;;16.77;7.10;;;;;;;11.13;100.00;100231.56;5052155;28;20132;-60
2023/07/03 01:37:43;;;;;;;19.60;8.18;;;;;;;11.12;100.00;100232.56;5052094;28;20095;-59
2023/07/03 01:40:12;;;;;;;23.38;7.13;;;;;;;11.13;100.00;100235.06;5051732;28;20053;-60
2023/07/03 01:42:40;;;;;;;21.00;7.43;;;;;;;11.17;100.00;100230.19;5051927;28;20060;-60
2023/07/03 01:45:09;;;;;;;19.15;6.97;;;;;;;11.22;100.00;100241.25;5051984;28;20054;-60
2023/07/03 01:47:36;;;;;;;19.02;7.40;;;;;;;11.25;100.00;100232.00;5051906;28;20068;-61
2023/07/03 01:50:07;;;;;;;15.38;6.20;;;;;;;11.15;100.00;100237.59;5052013;28;20128;-61
2023/07/03 01:52:46;;;;;;;17.17;6.80;;;;;;;11.13;100.00;100235.06;5051841;28;20044;-62
2023/07/03 01:55:23;;;;;;;18.83;6.60;;;;;;;11.18;100.00;100229.19;5035259;28;20041;-60
2023/07/03 01:58:09;;;;;;;18.48;6.88;;;;;;;11.18;100.00;100231.88;5034373;28;20433;-62
2023/07/03 02:00:48;;;;;;;13.77;6.60;;;;;;;11.19;100.00;100230.84;5031683;28;22535;-61
2023/07/03 02:03:24;;;;;;;16.42;7.47;;;;;;;11.19;100.00;100226.31;5030446;28;20042;-61
2023/07/03 02:05:55;;;;;;;17.95;7.82;;;;;;;11.21;100.00;100221.63;5031505;28;20049;-62
2023/07/03 02:08:23;;;;;;;15.68;6.85;;;;;;;11.21;100.00;100215.41;5031462;28;20452;-60
2023/07/03 02:10:50;;;;;;;14.40;6.60;;;;;;;11.20;100.00;100217.25;5031321;28;20049;-61
2023/07/03 02:13:16;;;;;;;16.55;6.75;;;;;;;11.23;100.00;100226.78;5031426;28;20045;-61
2023/07/03 02:15:43;;;;;;;16.42;7.22;;;;;;;11.26;100.00;100226.44;5032002;28;20054;-61
2023/07/03 02:18:17;;;;;;;13.32;6.57;;;;;;;11.26;100.00;100226.44;5031626;28;20041;-62
2023/07/03 02:20:44;;;;;;;16.73;7.00;;;;;;;11.28;100.00;100227.13;5033449;28;20828;-61
2023/07/03 02:23:11;;;;;;;20.30;7.57;;;;;;;11.34;100.00;100230.94;5031198;28;20072;-61
2023/07/03 02:25:37;;;;;;;22.65;7.53;;;;;;;11.27;100.00;100232.66;5031444;28;20041;-61
2023/07/03 02:28:06;;;;;;;20.70;7.65;;;;;;;11.25;100.00;100230.16;5031273;28;20095;-61
2023/07/03 02:30:32;;;;;;;17.25;7.32;;;;;;;11.27;100.00;100229.97;5031055;28;20037;-61
2023/07/03 02:32:59;;;;;;;14.48;7.30;;;;;;;11.29;100.00;100236.00;5030573;28;20056;-61
2023/07/03 02:35:25;;;;;;;15.18;6.90;;;;;;;11.30;100.00;100233.13;5031186;28;20558;-61
2023/07/03 02:37:52;;;;;;;19.13;7.30;;;;;;;11.30;100.00;100226.94;5031125;28;20069;-60
2023/07/03 02:40:19;;;;;;;17.48;6.93;;;;;;;11.28;100.00;100223.59;5030866;28;20106;-62
2023/07/03 02:42:45;;;;;;;18.52;8.15;;;;;;;11.40;100.00;100228.38;5031193;28;20053;-61
2023/07/03 02:45:12;;;;;;;25.70;7.22;;;;;;;11.34;100.00;100223.69;5030782;28;20095;-61
2023/07/03 02:47:38;;;;;;;16.80;7.20;;;;;;;11.35;100.00;100225.41;5031080;28;20441;-60
2023/07/03 02:50:07;;;;;;;19.13;7.55;;;;;;;11.28;100.00;100229.81;5030805;28;20049;-61
2023/07/03 02:52:33;;;;;;;17.83;7.53;;;;;;;11.27;100.00;100222.75;5030773;28;20043;-60
2023/07/03 02:55:00;;;;;;;15.68;7.10;;;;;;;11.38;100.00;100222.34;5030815;28;20045;-61
2023/07/03 02:57:28;;;;;;;16.00;7.47;;;;;;;11.39;100.00;100218.66;5030642;28;20038;-62
2023/07/03 02:59:54;;;;;;;15.07;7.03;;;;;;;11.40;100.00;100219.47;5030698;28;20049;-61
2023/07/03 03:02:21;;;;;;;20.50;7.93;;;;;;;11.43;100.00;100217.28;5030833;28;20049;-61
2023/07/03 03:04:48;;;;;;;14.73;6.68;;;;;;;11.42;100.00;100218.31;5030550;28;20519;-61
2023/07/03 03:07:15;;;;;;;19.25;8.27;;;;;;;11.44;100.00;100218.09;5031196;28;20046;-61
2023/07/03 03:09:41;;;;;;;21.17;8.32;;;;;;;11.46;100.00;100221.47;5030825;28;20053;-62
2023/07/03 03:12:08;;;;;;;18.98;7.57;;;;;;;11.49;100.00;100221.09;5030493;28;20041;-61
2023/07/03 03:14:35;;;;;;;17.65;6.70;;;;;;;11.49;100.00;100217.59;5030930;28;20045;-61
2023/07/03 03:17:02;;;;;;;16.65;7.38;;;;;;;11.46;100.00;100216.09;5030640;28;20130;-61
2023/07/03 03:19:28;;;;;;;14.55;7.25;;;;;;;11.47;100.00;100212.38;5030863;28;20092;-61
2023/07/03 03:21:55;;;;;;;16.27;7.25;;;;;;;11.54;100.00;100212.50;5030410;28;20489;-61
2023/07/03 03:24:22;;;;;;;20.92;7.30;;;;;;;11.54;100.00;100212.50;5030367;28;20053;-62
2023/07/03 03:26:48;;;;;;;19.13;7.95;;;;;;;11.45;100.00;100209.88;5030232;28;20049;-60
2023/07/03 03:29:15;;;;;;;17.48;7.60;;;;;;;11.43;100.00;100217.28;5030739;28;20517;-61
2023/07/03 03:31:41;;;;;;;16.45;7.68;;;;;;;11.50;100.00;100203.13;5030762;28;20085;-60
2023/07/03 03:34:08;;;;;;;17.58;7.43;;;;;;;11.50;100.00;100201.28;5030446;28;20536;-61
2023/07/03 03:36:38;;;;;;;17.85;7.43;;;;;;;11.50;100.00;100211.19;5030072;28;20041;-60
2023/07/03 03:39:05;;;;;;;16.42;7.20;;;;;;;11.49;100.00;100206.84;5030312;28;20056;-61
2023/07/03 03:41:32;;;;;;;17.15;7.03;;;;;;;11.46;100.00;100205.34;5030715;28;20068;-62
2023/07/03 03:43:58;;;;;;;14.23;7.05;;;;;;;11.45;100.00;100206.38;5032817;28;20103;-61
2023/07/03 03:46:25;;;;;;;21.70;8.18;;;;;;;11.45;100.00;100209.06;5034407;28;20520;-61
2023/07/03 03:48:52;;;;;;;17.08;7.28;;;;;;;11.50;100.00;100205.81;5034300;28;20050;-62
2023/07/03 03:51:18;;;;;;;16.70;6.90;;;;;;;11.46;100.00;100206.19;5034567;28;20061;-61
2023/07/03 03:53:45;;;;;;;19.52;7.20;;;;;;;11.51;100.00;100213.69;5034781;28;20045;-60
2023/07/03 03:56:11;;;;;;;17.20;7.30;;;;;;;11.55;100.00;100216.84;5034346;28;20065;-61
2023/07/03 03:58:38;;;;;;;23.35;7.65;;;;;;;11.49;100.00;100204.16;5034091;28;20045;-62
2023/07/03 04:01:05;;;;;;;14.55;7.72;;;;;;;11.56;100.00;100207.81;5034210;28;20053;-60
2023/07/03 04:03:31;;;;;;;17.30;7.85;;;;;;;11.53;100.00;100203.63;5034238;28;20391;-61
2023/07/03 04:05:58;;;;;;;24.45;9.18;;;;;;;11.53;100.00;100203.63;5034010;28;20148;-61
2023/07/03 04:08:25;;;;;;;20.92;9.70;;;;;;;11.58;100.00;100208.44;5032518;28;20053;-63
2023/07/03 04:10:51;;;;;;;20.00;8.32;;;;;;;11.60;100.00;100206.41;5033763;28;20077;-61
2023/07/03 04:13:18;;;;;;;19.95;8.20;;;;;;;11.65;100.00;100204.03;5033748;28;20071;-62
2023/07/03 04:15:57;;;;;;;19.30;7.25;;;;;;;11.64;100.00;100197.81;5034170;28;20053;-61
2023/07/03 04:18:25;;;;;;;19.50;7.35;;;;;;;11.69;100.00;100195.47;5033351;28;20045;-61
2023/07/03 04:20:52;;;;;;;16.70;8.18;;;;;;;11.71;100.00;100202.50;5033666;28;20049;-61
2023/07/03 04:23:19;;;;;;;15.40;7.43;;;;;;;11.76;100.00;100200.97;5033318;28;20095;-59
2023/07/03 04:25:46;;;;;;;22.13;8.75;;;;;;;11.83;100.00;100206.41;5034096;28;20494;-61
2023/07/03 04:28:13;;;;;;;15.75;7.15;;;;;;;11.89;100.00;100198.47;5033896;28;20106;-61
2023/07/03 04:30:39;;;;;;;13.73;8.10;;;;;;;11.93;100.00;100205.19;5033595;28;20045;-64
2023/07/03 04:33:06;;;;;;;17.73;7.32;;;;;;;11.95;100.00;100206.84;5033016;28;20495;-62
2023/07/03 04:35:33;;;;;;;24.13;10.93;;;;;;;12.07;100.00;100210.75;5033364;28;20052;-61
2023/07/03 04:38:01;;;;;;;16.98;8.13;;;;;;;12.03;100.00;100206.75;5033451;28;20111;-61
2023/07/03 04:40:28;;;;;;;18.90;7.82;;;;;;;12.10;100.00;100203.16;5033248;28;20387;-61
2023/07/03 04:42:56;;;;;;;20.75;7.95;;;;;;;12.11;100.00;100209.38;5033298;28;20494;-61
2023/07/03 04:45:24;;;;;;;20.48;7.90;;;;;;;12.15;100.00;100205.31;5033106;28;20049;-60
2023/07/03 04:47:51;;;;;;;21.35;7.68;;;;;;;12.17;100.00;100198.72;5033204;28;20053;-61
2023/07/03 04:50:18;;;;;;;18.20;7.93;;;;;;;12.22;100.00;100200.88;5033163;28;20049;-60
2023/07/03 04:52:46;;;;;;;16.92;7.22;;;;;;;12.32;100.00;100211.38;5033552;28;20096;-60
2023/07/03 04:55:13;;;;;;;19.38;8.13;;;;;;;12.46;100.00;100201.63;5032243;28;20045;-62
2023/07/03 04:57:40;;;;;;;20.02;8.95;;;;;;;12.43;100.00;100200.13;5032784;28;20045;-61
2023/07/03 05:00:14;;;;;;;22.00;8.70;;;;;;;12.51;100.00;100201.91;5032850;28;20103;-61
2023/07/03 05:02:46;;;;;;;18.67;7.88;;;;;;;12.59;100.00;100189.19;5032953;28;20053;-60
2023/07/03 05:05:14;;;;;;;19.30;7.68;;;;;;;12.60;100.00;100198.09;5031728;28;20049;-60
2023/07/03 05:07:42;;;;;;;19.75;7.72;;;;;;;12.60;100.00;100192.72;5032680;28;20049;-61
2023/07/03 05:10:10;;;;;;;19.25;8.07;;;;;;;12.66;100.00;100197.34;5032473;28;20079;-63
2023/07/03 05:12:37;;;;;;;15.55;8.55;;;;;;;12.81;100.00;100195.50;5032437;28;20053;-60
2023/07/03 05:15:07;;;;;;;16.05;7.68;;;;;;;12.88;100.00;100191.03;5032213;28;20559;-60
2023/07/03 05:17:38;;;;;;;19.77;8.05;;;;;;;12.86;100.00;100203.00;5031377;28;20043;-60
2023/07/03 05:20:11;;;;;;;21.63;7.78;;;;;;;12.93;100.00;100198.53;5032457;28;20053;-60
2023/07/03 05:22:39;;;;;;;23.48;7.82;;;;;;;12.93;100.00;100200.41;5032335;28;20057;-61
2023/07/03 05:25:07;;;;;;;18.15;7.80;;;;;;;13.03;100.00;100199.06;5032191;28;20493;-61
2023/07/03 05:27:35;;;;;;;22.98;8.15;;;;;;;13.06;100.00;100192.50;5032367;28;20046;-61
2023/07/03 05:30:03;;;;;;;18.70;8.30;;;;;;;13.14;100.00;100197.75;5032423;28;20417;-63
2023/07/03 05:32:30;;;;;;;15.73;7.60;;;;;;;13.29;100.00;100206.63;5032406;28;20386;-61
2023/07/03 05:34:56;;;;;;;23.20;8.73;;;;;;;13.33;100.00;100197.16;5030888;28;20424;-60
2023/07/03 05:37:23;;;;;;;22.73;8.40;;;;;;;13.40;100.00;100194.53;5030863;28;20513;-61
2023/07/03 05:39:49;;;;;;;18.20;8.15;;;;;;;13.43;100.00;100199.53;5032390;28;20049;-61
2023/07/03 05:42:16;;;;;;;18.00;7.68;;;;;;;13.50;100.00;100203.13;5032783;28;20153;-61
2023/07/03 05:44:44;;;;;;;18.92;7.93;;;;;;;13.67;100.00;100211.78;5032187;28;20481;-61
2023/07/03 05:47:12;;;;;;;18.75;8.27;;;;;;;13.73;100.00;100210.16;5031793;28;20049;-61
2023/07/03 05:49:39;;;;;;;21.67;7.93;;;;;;;13.76;100.00;100205.25;5031466;28;20048;-62
2023/07/03 05:52:06;;;;;;;18.83;8.30;;;;;;;13.88;100.00;100207.44;5032087;28;20049;-61
2023/07/03 05:54:32;;;;;;;22.02;7.90;;;;;;;13.90;100.00;100202.69;5031960;28;20041;-61
2023/07/03 05:57:09;;;;;;;19.63;8.80;;;;;;;13.85;100.00;100208.66;5031659;28;20142;-61
2023/07/03 05:59:37;;;;;;;22.55;7.60;;;;;;;13.85;100.00;100210.53;5031764;28;20121;-61
2023/07/03 06:02:13;;;;;;;23.25;7.90;;;;;;;13.88;100.00;100210.16;5031643;28;20053;-61
2023/07/03 06:04:40;;;;;;;19.88;7.53;;;;;;;14.02;100.00;100217.31;5030400;28;20407;-60
2023/07/03 06:07:08;;;;;;;22.52;8.85;;;;;;;13.94;100.00;100221.00;5030526;28;20053;-60
2023/07/03 06:09:34;;;;;;;21.02;7.18;;;;;;;14.07;100.00;100222.94;5031608;28;20049;-60
2023/07/03 06:12:02;;;;;;;18.92;7.88;;;;;;;14.28;100.00;100213.97;5031077;28;20497;-60
2023/07/03 06:14:31;;;;;;;20.73;8.73;;;;;;;14.35;100.00;100217.53;5031492;28;20080;-60
2023/07/03 06:16:58;;;;;;;20.38;7.57;;;;;;;14.63;100.00;100220.19;5031287;28;20049;-60
2023/07/03 06:19:26;;;;;;;13.00;7.35;;;;;;;14.75;100.00;100213.25;5031178;28;20046;-60
2023/07/03 06:21:54;;;;;;;17.67;7.85;;;;;;;14.96;100.00;100212.31;5031433;28;20421;-61
2023/07/03 06:24:21;;;;;;;27.42;8.05;;;;;;;15.19;100.00;100217.41;5031401;28;20056;-63
2023/07/03 06:26:47;;;;;;;16.80;7.22;;;;;;;15.34;100.00;100214.53;5031221;28;20042;-62
2023/07/03 06:29:14;;;;;;;20.67;7.18;;;;;;;15.55;100.00;100228.91;5031487;28;20429;-61
2023/07/03 06:31:41;;;;;;;13.43;6.85;;;;;;;15.60;100.00;100216.44;5031085;28;20138;-61
2023/07/03 06:34:09;;;;;;;17.48;6.85;;;;;;;15.70;100.00;100219.59;5031083;28;20041;-61
2023/07/03 06:36:35;;;;;;;17.50;6.28;;;;;;;15.92;100.00;100224.84;5029962;28;20095;-62
2023/07/03 06:39:04;;;;;;;17.00;6.68;;;;;;;16.06;97.59;100217.56;5030927;28;20049;-62
2023/07/03 06:41:34;;;;;;;25.33;7.28;;;;;;;16.06;97.16;100229.22;5031249;28;20045;-63
2023/07/03 06:44:03;;;;;;;22.02;6.65;;;;;;;16.00;94.92;100230.03;5030382;28;20109;-62
2023/07/03 06:46:31;;;;;;;20.35;6.20;;;;;;;16.04;93.37;100225.03;5031097;28;20055;-63
2023/07/03 06:48:57;;;;;;;21.02;6.07;;;;;;;15.96;94.26;100231.50;5030325;28;20049;-63
2023/07/03 06:51:25;;;;;;;20.48;6.13;;;;;;;15.99;91.19;100233.78;5030933;28;20416;-62
2023/07/03 06:53:52;;;;;;;15.35;5.47;;;;;;;16.10;92.37;100240.44;5030788;28;20053;-63
2023/07/03 06:56:20;;;;;;;22.27;6.68;;;;;;;16.16;92.40;100228.78;5031203;28;20054;-64
2023/07/03 06:58:49;;;;;;;16.52;6.22;;;;;;;16.35;90.48;100235.22;5030738;28;20054;-62
2023/07/03 07:01:19;;;;;;;20.20;7.05;;;;;;;16.36;90.77;100236.88;5030945;28;20069;-62
2023/07/03 07:03:46;;;;;;;15.00;6.13;;;;;;;16.38;90.15;100232.09;5030572;28;20485;-62
2023/07/03 07:06:16;;;;;;;19.23;6.57;;;;;;;16.28;90.00;100232.53;5029244;28;20049;-63
2023/07/03 07:08:43;;;;;;;26.52;7.60;;;;;;;16.35;88.21;100232.50;5029589;28;20049;-62
2023/07/03 07:11:13;;;;;;;16.80;6.45;;;;;;;16.46;88.25;100237.28;5030556;28;20041;-63
2023/07/03 07:13:45;;;;;;;23.70;7.03;;;;;;;16.35;88.78;100235.22;5030628;28;20099;-63
2023/07/03 07:16:20;;;;;;;18.52;6.10;;;;;;;16.42;88.93;100233.34;5030567;28;20095;-63
2023/07/03 07:18:50;;;;;;;14.57;6.20;;;;;;;16.51;88.79;100240.22;5029984;28;20045;-65
2023/07/03 07:21:17;;;;;;;19.67;6.20;;;;;;;16.51;88.13;100237.53;5030418;28;20045;-62
2023/07/03 07:23:53;;;;;;;18.50;6.20;;;;;;;16.63;87.39;100235.81;5031156;28;20056;-63
2023/07/03 07:26:21;;;;;;;20.63;6.30;;;;;;;16.48;85.66;100237.91;5030420;28;20500;-64
2023/07/03 07:28:47;;;;;;;24.65;7.00;;;;;;;16.50;85.07;100235.84;5030612;28;20054;-62
2023/07/03 07:31:22;;;;;;;14.43;5.97;;;;;;;16.62;84.90;100239.56;5030832;28;20464;-63
2023/07/03 07:33:50;;;;;;;23.38;7.10;;;;;;;16.60;80.61;100244.38;5030471;28;20103;-64
2023/07/03 07:36:20;;;;;;;19.00;6.82;;;;;;;16.82;83.13;100241.41;5030765;28;20049;-62
2023/07/03 07:38:48;;;;;;;18.42;6.47;;;;;;;16.90;81.76;100252.84;5029510;28;20049;-62
2023/07/03 07:41:15;;;;;;;17.63;6.30;;;;;;;17.22;78.51;100246.66;5030846;28;20052;-63
2023/07/03 07:43:42;;;;;;;21.73;6.38;;;;;;;17.05;78.16;100249.03;5030753;28;20060;-64
2023/07/03 07:46:08;;;;;;;23.17;6.55;;;;;;;16.83;78.07;100243.06;5030125;28;20046;-63
2023/07/03 07:48:35;;;;;;;19.20;5.88;;;;;;;16.97;78.65;100252.81;5029198;28;20045;-63
2023/07/03 07:51:07;;;;;;;21.90;6.03;;;;;;;17.62;73.86;100250.03;5030311;28;20084;-63
2023/07/03 07:53:33;;;;;;;18.80;6.30;;;;;;;18.21;69.40;100254.22;5030332;28;20065;-63
2023/07/03 07:56:00;;;;;;;17.92;5.90;;;;;;;18.06;69.58;100251.81;5029985;28;20057;-62
2023/07/03 07:58:27;;;;;;;18.23;7.05;;;;;;;17.71;69.67;100258.72;5030080;28;20042;-62
2023/07/03 08:00:56;;;;;;;17.42;6.72;;;;;;;17.58;72.52;100260.50;5030208;28;20053;-63
2023/07/03 08:03:23;;;;;;;19.45;6.45;;;;;;;17.45;73.12;100255.13;5030270;28;20461;-61
2023/07/03 08:05:56;;;;;;;12.77;5.88;;;;;;;17.37;74.09;100252.66;5030190;28;20417;-62
2023/07/03 08:08:22;;;;;;;15.77;5.80;;;;;;;17.55;73.26;100260.94;5030313;28;20453;-62
2023/07/03 08:10:53;;;;;;;21.33;5.95;;;;;;;17.58;72.51;100255.06;5029977;28;20514;-61
2023/07/03 08:13:21;;;;;;;21.20;6.88;;;;;;;17.58;72.62;100254.25;5029910;28;20050;-64
2023/07/03 08:15:48;;;;;;;19.27;6.50;;;;;;;17.59;71.93;100245.88;5030170;28;20459;-64
2023/07/03 08:18:15;;;;;;;23.65;6.35;;;;;;;17.59;71.58;100245.88;5030189;28;20470;-63
2023/07/03 08:20:43;;;;;;;17.15;6.50;;;;;;;17.50;71.93;100240.91;5029891;28;20486;-61
2023/07/03 08:23:10;;;;;;;22.25;6.25;;;;;;;17.51;73.15;100240.72;5029672;28;20041;-61
2023/07/03 08:25:37;;;;;;;20.73;6.93;;;;;;;17.55;73.35;100244.66;5029409;28;20049;-60
2023/07/03 08:28:04;;;;;;;14.75;6.05;;;;;;;17.79;70.80;100231.34;5029513;28;20076;-63
2023/07/03 08:30:31;;;;;;;19.05;6.05;;;;;;;18.44;65.70;100234.56;5030651;28;20048;-61
2023/07/03 08:32:57;;;;;;;20.20;6.57;;;;;;;18.53;64.93;100244.09;5033418;28;20473;-61
2023/07/03 08:35:24;;;;;;;17.35;6.07;;;;;;;18.53;65.65;100249.53;5032962;28;20095;-61
2023/07/03 08:37:54;;;;;;;12.40;5.63;;;;;;;18.25;65.11;100243.75;5033314;28;20065;-62
2023/07/03 08:40:22;;;;;;;15.98;6.38;;;;;;;18.26;65.50;100251.66;5032902;28;20045;-62
2023/07/03 08:42:53;;;;;;;16.35;5.95;;;;;;;18.40;63.42;100246.09;5033173;28;20061;-62
2023/07/03 08:45:23;;;;;;;16.50;5.68;;;;;;;18.64;62.87;100245.22;5033102;28;20042;-62
2023/07/03 08:47:54;;;;;;;17.63;5.35;;;;;;;19.19;58.84;100250.69;5032611;28;20399;-63
2023/07/03 08:50:22;;;;;;;16.35;5.50;;;;;;;19.74;57.94;100244.31;5033238;28;20050;-61
2023/07/03 08:53:03;;;;;;;;;;;;;;;20.16;55.56;100255.16;5033356;28;20053;-61
2023/07/03 08:55:42;;;;;;;16.80;5.38;;;;;;;20.61;52.57;100243.72;5032952;28;20411;-62
2023/07/03 08:58:09;;;;;;;17.20;6.00;;;;;;;20.86;49.69;100246.16;5032574;28;20061;-61
2023/07/03 09:01:06;;;;;;;17.10;5.50;;;;;;;21.52;48.15;100236.59;5032893;28;20497;-61
2023/07/03 09:03:57;;;;;;;17.05;6.07;;;;;;;21.90;45.44;100243.31;5032417;28;20045;-61
2023/07/03 09:06:43;;;;;;;13.93;5.30;;;;;;;22.20;45.68;100243.00;5032428;28;20475;-62
2023/07/03 09:09:27;;;;;;;23.42;6.30;;;;;;;22.50;41.44;100247.31;5032343;28;20091;-61
2023/07/03 09:12:18;;;;;;;12.70;4.53;;;;;;;22.78;42.56;100244.44;5032720;28;20045;-61
2023/07/03 09:14:55;;;;;;;15.50;5.22;;;;;;;22.97;38.46;100239.47;5032860;28;20072;-61
2023/07/03 09:17:23;;;;;;;16.13;5.03;;;;;;;22.97;38.71;100252.31;5032087;28;20046;-62
2023/07/03 09:19:52;;;;;;;9.32;4.65;;;;;;;23.25;38.68;100243.09;5032515;28;20413;-61
2023/07/03 09:22:32;;;;;;;14.90;4.47;;;;;;;23.33;37.89;100241.81;5032374;28;20095;-61
2023/07/03 09:25:02;;;;;;;13.57;5.25;;;;;;;22.91;36.32;100250.59;5031885;28;20096;-62
2023/07/03 09:27:30;;;;;;;14.30;4.68;;;;;;;22.37;39.74;100243.00;5032376;28;20049;-61
2023/07/03 09:30:04;;;;;;;11.75;4.43;;;;;;;21.40;40.90;100257.69;5032222;28;20123;-62
2023/07/03 09:32:32;;;;;;;13.00;4.53;;;;;;;21.03;41.19;100255.25;5031898;28;20050;-59
2023/07/03 09:35:08;;;;;;;12.50;4.32;;;;;;;20.58;42.03;100247.75;5031073;28;20117;-60
2023/07/03 09:37:39;;;;;;;16.05;5.43;;;;;;;20.84;40.82;100262.78;5032460;28;20041;-62
2023/07/03 09:40:10;;;;;;;17.13;4.73;;;;;;;22.21;39.37;100257.47;5031985;28;20076;-62
2023/07/03 09:42:37;;;;;;;10.65;4.28;;;;;;;21.86;39.81;100255.81;5031614;28;20068;-61
2023/07/03 09:45:12;;;;;;;12.40;4.53;;;;;;;21.44;40.41;100271.66;5031987;28;20095;-62
2023/07/03 09:47:41;;;;;;;11.82;3.85;;;;;;;22.10;38.49;100261.94;5031756;28;20064;-60
2023/07/03 09:50:09;;;;;;;10.38;4.57;;;;;;;22.14;36.88;100263.09;5032049;28;20056;-60
2023/07/03 09:52:45;;;;;;;12.70;4.07;;;;;;;21.59;38.78;100264.56;5032167;28;20053;-61
2023/07/03 09:55:32;;;;;;;11.40;4.35;;;;;;;20.82;39.52;100261.34;5031751;28;20053;-60
2023/07/03 09:57:59;;;;;;;11.73;3.88;;;;;;;20.22;40.61;100258.84;5031563;28;20076;-60
2023/07/03 10:00:26;;;;;;;12.07;3.83;;;;;;;19.86;41.57;100277.81;5032059;28;20132;-62
2023/07/03 10:02:56;;;;;;;13.68;4.18;;;;;;;19.72;41.97;100279.09;5031684;28;20049;-62
2023/07/03 10:05:31;;;;;;;11.00;4.13;;;;;;;19.67;42.49;100270.78;5031710;28;20555;-61
2023/07/03 10:08:03;;;;;;;11.32;3.95;;;;;;;19.64;41.75;100271.22;5030406;28;20558;-62
2023/07/03 10:10:33;;;;;;;14.73;4.13;;;;;;;19.50;42.72;100270.59;5031728;28;20488;-61
2023/07/03 10:13:14;;;;;;;10.00;3.92;;;;;;;19.38;43.12;100278.72;5031957;28;20053;-62
2023/07/03 10:15:42;;;;;;;12.50;3.92;;;;;;;19.26;43.61;100275.91;5031804;28;20117;-61
2023/07/03 10:18:20;;;;;;;10.40;3.83;;;;;;;18.99;44.46;100278.13;5031526;28;20099;-61
2023/07/03 10:20:50;;;;;;;15.32;4.25;;;;;;;19.25;44.41;100285.13;5031917;28;20053;-61
2023/07/03 10:23:23;;;;;;;10.15;3.90;;;;;;;19.36;44.43;100282.72;5031584;28;20504;-61
2023/07/03 10:25:54;;;;;;;13.32;4.43;;;;;;;19.50;44.61;100290.47;5030572;28;20075;-62
2023/07/03 10:28:26;;;;;;;15.57;4.43;;;;;;;19.77;44.29;100275.69;5030997;28;20049;-61
2023/07/03 10:30:58;;;;;;;20.75;4.40;;;;;;;19.58;44.50;100285.75;5030463;28;20056;-62
2023/07/03 10:33:30;;;;;;;12.68;4.22;;;;;;;19.28;44.78;100286.56;5030686;28;20099;-62
2023/07/03 10:35:57;;;;;;;13.15;3.88;;;;;;;19.02;45.42;100280.38;5031332;28;20076;-62
2023/07/03 10:38:48;;;;;;;18.75;4.30;;;;;;;19.41;43.80;100280.13;5031025;28;20045;-62
2023/07/03 10:41:24;;;;;;;13.45;3.83;;;;;;;19.27;44.44;100285.72;5031444;28;20409;-61
2023/07/03 10:44:06;;;;;;;14.70;3.92;;;;;;;19.29;45.02;100279.25;5030462;28;20151;-60
2023/07/03 10:46:42;;;;;;;12.57;3.65;;;;;;;19.36;44.87;100286.25;5030803;28;20049;-62
2023/07/03 10:49:21;;;;;;;12.10;3.85;;;;;;;20.42;41.24;100287.44;5030895;28;20472;-62
2023/07/03 10:51:55;;;;;;;10.55;3.92;;;;;;;21.26;40.72;100298.06;5029743;28;20421;-61
2023/07/03 10:54:31;;;;;;;10.65;3.90;;;;;;;21.51;38.85;100296.91;5030218;28;20051;-61
2023/07/03 10:57:01;;;;;;;12.45;4.28;;;;;;;21.66;40.31;100297.19;5030677;28;20053;-60
2023/07/03 10:59:33;;;;;;;17.10;4.63;;;;;;;20.83;40.31;100293.00;5030278;28;20049;-61
2023/07/03 11:02:26;;;;;;;15.23;4.30;;;;;;;20.00;41.31;100297.50;5030580;28;20396;-63
2023/07/03 11:05:08;;;;;;;11.23;4.03;;;;;;;19.58;42.68;100300.19;5030572;28;20060;-61
2023/07/03 11:08:03;;;;;;;14.52;4.30;;;;;;;19.08;45.27;100303.13;5030723;28;20042;-61
2023/07/03 11:10:35;;;;;;;20.60;4.00;;;;;;;18.79;45.45;100302.78;5028331;28;20077;-60
2023/07/03 11:13:14;;;;;;;15.43;4.50;;;;;;;19.05;44.81;100314.44;5030405;28;20049;-63
2023/07/03 11:15:49;;;;;;;14.98;4.07;;;;;;;19.54;44.06;100309.88;5030757;28;20478;-62
2023/07/03 11:18:35;;;;;;;14.55;3.90;;;;;;;19.57;43.10;100301.25;5030498;28;20198;-63
2023/07/03 11:21:24;;;;;;;19.58;4.68;;;;;;;19.35;43.02;100303.66;5030304;28;20129;-63
2023/07/03 11:23:56;;;;;;;13.18;3.83;;;;;;;19.20;44.33;100295.84;5030523;28;20085;-65